Tropical Cyclones
[Index]
Main Index Home Page Stock Weather Photos Extreme Storms Discussion Storm News and Storm Chasing Reports Tropical Cyclones / Hurricanes / Typhoons Weather Data and Links Wild Fires / Bushfires Weather Observation Techniques Weather Picture Catalogue Tornado Pictures and Reports Stock Video Footage and DVDs for sale
Season 1986-1987 Tropical Cyclone BLANCH Track Map
Season 1986-1987 Summaries: [BoM-AU] [JTWC-AU] [JTWC-SIO] [JTWC-SPAC] [JTWC-SH]
<<- Previous TC | BoM 1986-1987 Season | Next TC ->>

click for intensity scale information  Lat/long Grid: Show Hide

 Date Labels: Show Hide

Bureau of Meteorology Tropical Cyclone Data

Name: BLANCH
Number: 701 / 198687_07

21 May 1987 03:00 UTC to 27 May 1987 00:00 UTC

    date/time    lat    long    hPa   cat  kts
1987-05-21 03   10.0   167.7   1005         21          
1987-05-21 06   10.1   166.8   1005         27          
1987-05-21 12   10.4   165.1   1005         21          
1987-05-21 18   10.7   163.7   1003         25          
1987-05-22 00   10.9   162.2   1003         25          
1987-05-22 06   11.1   160.9    998         41          
1987-05-22 12   12.0   159.9    994    1    51          
1987-05-22 18   12.7   159.4    990    1    60          
1987-05-23 00   13.1   159.1    990    1    60          
1987-05-23 06   13.6   158.8    990    1    60          
1987-05-23 12   14.0   158.6    990    1    60          
1987-05-23 18   14.5   158.2    990    1    60          
1987-05-24 00   14.9   157.7    990    1    54          
1987-05-24 06   15.2   157.4    992    1    51          
1987-05-24 12   15.4   157.1    995    1    49          
1987-05-24 18   15.8   156.9    995    1    49          
1987-05-25 00   16.1   156.9    998         41          
1987-05-25 06   16.5   157.0   1000         35          
1987-05-25 12   17.0   157.0   1000         35          
1987-05-25 18   17.5   156.5   1000         33          
1987-05-26 00   18.0   156.0   1002         29          
1987-05-26 06   18.4   155.6   1004         27          
1987-05-26 12   18.6   155.5   1006         25          
1987-05-26 18   19.3   156.0   1007         21          
1987-05-27 00   19.9   157.0   1008         19          
Winds are 10-min average.

Tropical cyclone tracks developed by Michael Bath using data from the Bureau of Meteorology and Google Maps.


[Australian Severe Weather index] [Copyright Notice] [Email Contacts] [Search This Site] [Privacy Policy]
Document: tropical_cyclone_blanch.htm Updated: 30 May 2013